createdAt,value
2022-08-05T00:04:46.964Z,2.90
2022-08-05T00:09:49.394Z,4.55
2022-08-05T00:14:43.191Z,6.13
2022-08-05T00:19:44.008Z,5.90
2022-08-05T00:24:42.180Z,5.60
2022-08-05T00:29:37.990Z,5.85
2022-08-05T00:34:56.488Z,4.50
2022-08-05T00:39:58.027Z,4.65
2022-08-05T00:44:57.654Z,3.80
2022-08-05T00:49:51.831Z,2.97
2022-08-05T00:54:45.217Z,2.80
2022-08-05T00:59:44.689Z,2.80
2022-08-05T01:04:42.193Z,2.03
2022-08-05T01:09:37.080Z,2.97
2022-08-05T01:14:49.850Z,2.38
2022-08-05T01:20:00.977Z,2.35
2022-08-05T01:29:56.863Z,2.53
2022-08-05T01:34:56.213Z,2.38
2022-08-05T01:39:50.933Z,2.50
2022-08-05T01:44:53.823Z,2.35
2022-08-05T01:50:01.641Z,2.40
2022-08-05T01:55:00.502Z,2.83
2022-08-05T01:59:58.304Z,2.25
2022-08-05T02:04:54.228Z,2.80
2022-08-05T02:09:49.300Z,2.88
2022-08-05T02:15:33.278Z,3.40
2022-08-05T02:20:28.819Z,3.35
2022-08-05T02:25:33.105Z,3.08
2022-08-05T02:30:29.907Z,2.80
2022-08-05T02:35:28.314Z,3.13
2022-08-05T02:40:28.215Z,3.10
2022-08-05T02:45:24.232Z,2.65
2022-08-05T02:50:18.485Z,2.67
2022-08-05T02:55:13.077Z,2.33
2022-08-05T03:00:07.381Z,2.72
2022-08-05T03:05:02.290Z,3.00
2022-08-05T03:09:57.816Z,2.60
2022-08-05T03:14:51.892Z,2.70
2022-08-05T03:19:46.441Z,4.05
2022-08-05T03:24:47.263Z,4.28
2022-08-05T03:30:07.578Z,4.10
2022-08-05T03:34:59.188Z,4.10
2022-08-05T03:40:01.570Z,5.32
2022-08-05T03:44:57.052Z,10.40
2022-08-05T03:49:52.430Z,10.73
2022-08-05T03:56:05.757Z,11.25
2022-08-05T04:00:19.736Z,9.38
2022-08-05T04:05:13.748Z,8.25
2022-08-05T04:10:09.530Z,8.70
2022-08-05T04:15:02.765Z,7.13
2022-08-05T04:19:58.707Z,5.63
2022-08-05T04:24:52.490Z,5.97
2022-08-05T04:29:47.832Z,4.53
2022-08-05T04:34:43.553Z,4.82
2022-08-05T04:39:38.156Z,4.70
2022-08-05T04:44:32.940Z,4.32
2022-08-05T04:49:39.196Z,4.05
2022-08-05T04:54:41.022Z,3.90
2022-08-05T04:59:38.391Z,3.63
2022-08-05T05:04:33.709Z,3.35
2022-08-05T05:09:28.154Z,3.40
2022-08-05T05:14:27.920Z,3.50
2022-08-05T05:24:22.174Z,3.17
2022-08-05T05:30:03.355Z,3.75
2022-08-05T05:34:49.814Z,3.22
2022-08-05T05:39:46.081Z,3.25
2022-08-05T05:44:43.164Z,3.47
2022-08-05T05:49:40.184Z,3.88
2022-08-05T05:54:49.960Z,4.75
2022-08-05T05:59:44.918Z,4.65
2022-08-05T06:04:39.127Z,4.10
2022-08-05T06:10:00.269Z,3.63
2022-08-05T06:14:46.865Z,3.63
2022-08-05T06:19:41.556Z,3.92
2022-08-05T06:24:50.471Z,4.35
2022-08-05T06:29:54.337Z,3.92
2022-08-05T06:35:05.998Z,3.75
2022-08-05T06:40:12.607Z,3.70
2022-08-05T06:45:09.596Z,4.25
2022-08-05T06:50:17.378Z,3.95
2022-08-05T06:55:11.963Z,3.70
2022-08-05T07:00:10.807Z,4.20
2022-08-05T07:05:14.235Z,5.22
2022-08-05T07:10:14.938Z,6.20
2022-08-05T07:15:34.755Z,6.68
2022-08-05T07:20:43.668Z,6.35
2022-08-05T07:25:56.288Z,5.50
2022-08-05T07:30:52.857Z,4.57
2022-08-05T07:36:05.157Z,3.63
2022-08-05T07:42:08.969Z,3.13
2022-08-05T07:46:25.114Z,3.28
2022-08-05T07:51:23.670Z,3.80
2022-08-05T08:01:51.832Z,2.88
2022-08-05T08:06:51.295Z,2.70
2022-08-05T08:11:48.256Z,2.78
2022-08-05T08:16:53.682Z,2.67
2022-08-05T08:21:48.057Z,2.50
2022-08-05T08:26:42.305Z,2.75
2022-08-05T08:31:39.380Z,2.10
2022-08-05T08:36:47.396Z,2.60
2022-08-05T08:46:48.248Z,2.50
2022-08-05T08:52:04.012Z,2.67
2022-08-05T08:56:56.739Z,2.58
2022-08-05T09:01:57.470Z,2.72
2022-08-05T09:06:55.063Z,2.50
2022-08-05T09:11:55.357Z,2.72
2022-08-05T09:16:54.202Z,2.55
2022-08-05T09:22:21.999Z,2.40
2022-08-05T09:27:02.296Z,2.60
2022-08-05T09:32:43.078Z,2.13
2022-08-05T09:38:13.076Z,2.38
2022-08-05T09:42:51.317Z,2.70
2022-08-05T09:47:56.211Z,3.13
2022-08-05T09:52:58.612Z,2.92
2022-08-05T09:57:54.622Z,2.78
2022-08-05T10:02:58.677Z,2.63
2022-08-05T10:08:36.878Z,2.58
2022-08-05T10:13:47.475Z,2.50
2022-08-05T10:18:47.950Z,2.60
2022-08-05T10:23:59.725Z,2.60
2022-08-05T10:28:54.802Z,2.38
2022-08-05T10:33:52.232Z,1.98
2022-08-05T10:38:49.778Z,2.10
2022-08-05T10:43:51.515Z,2.00
2022-08-05T10:49:01.511Z,2.30
2022-08-05T10:54:02.052Z,1.80
2022-08-05T11:00:02.793Z,2.38
2022-08-05T11:04:32.758Z,2.53
2022-08-05T11:10:04.142Z,2.20
2022-08-05T11:15:19.046Z,2.00
2022-08-05T11:20:39.100Z,2.05
2022-08-05T11:26:06.185Z,1.77
2022-08-05T11:30:58.720Z,2.03
2022-08-05T11:36:07.009Z,1.80
2022-08-05T11:41:35.638Z,2.92
2022-08-05T11:46:32.442Z,1.80
2022-08-05T11:51:44.555Z,1.70
2022-08-05T11:57:25.364Z,2.00
2022-08-05T12:02:32.025Z,2.10
2022-08-05T12:08:07.982Z,2.13
2022-08-05T12:12:38.737Z,2.10
2022-08-05T12:18:03.792Z,1.98
2022-08-05T12:23:13.335Z,2.13
2022-08-05T12:28:07.892Z,2.03
2022-08-05T12:33:27.218Z,2.30
2022-08-05T12:38:22.226Z,2.20
2022-08-05T12:43:20.677Z,2.22
2022-08-05T12:48:32.300Z,2.22
2022-08-05T12:53:36.864Z,2.05
2022-08-05T12:58:50.348Z,2.15
2022-08-05T13:03:48.701Z,2.20
2022-08-05T13:14:05.546Z,2.50
2022-08-05T13:18:57.691Z,2.60
2022-08-05T13:23:52.437Z,1.85
2022-08-05T13:28:46.615Z,2.53
2022-08-05T13:34:24.792Z,2.15
2022-08-05T13:38:57.034Z,2.40
2022-08-05T13:43:54.809Z,2.42
2022-08-05T13:48:57.696Z,2.20
2022-08-05T13:53:57.840Z,2.50
2022-08-05T13:58:53.291Z,2.53
2022-08-05T14:04:07.643Z,2.35
2022-08-05T14:09:02.453Z,2.30
2022-08-05T14:14:03.218Z,2.40
2022-08-05T14:18:58.185Z,1.92
2022-08-05T14:23:58.041Z,2.50
2022-08-05T14:28:54.676Z,2.60
2022-08-05T14:33:59.337Z,2.30
2022-08-05T14:38:54.030Z,2.17
2022-08-05T14:43:57.817Z,2.25
2022-08-05T14:48:54.099Z,2.75
2022-08-05T14:54:28.598Z,2.25
2022-08-05T14:59:03.353Z,2.60
2022-08-05T15:03:57.327Z,2.58
2022-08-05T15:08:59.580Z,2.40
2022-08-05T15:13:58.474Z,2.42
2022-08-05T15:18:52.516Z,2.40
2022-08-05T15:23:46.486Z,2.40
2022-08-05T15:28:43.030Z,1.80
2022-08-05T15:34:04.614Z,2.13
2022-08-05T15:38:50.841Z,2.38
2022-08-05T15:44:05.407Z,2.40
2022-08-05T15:49:01.221Z,2.35
2022-08-05T15:54:08.223Z,2.20
2022-08-05T15:59:02.100Z,2.13
2022-08-05T16:03:55.678Z,2.50
2022-08-05T16:08:50.855Z,1.90
2022-08-05T16:13:46.012Z,2.25
2022-08-05T16:18:52.479Z,2.35
2022-08-05T16:23:54.120Z,2.17
2022-08-05T16:28:50.325Z,2.10
2022-08-05T16:33:47.064Z,2.25
2022-08-05T16:38:41.051Z,2.50
2022-08-05T16:43:35.988Z,2.42
2022-08-05T16:48:33.253Z,2.20
2022-08-05T16:54:02.098Z,2.40
2022-08-05T16:58:42.260Z,2.33
2022-08-05T17:03:35.553Z,2.53
2022-08-05T17:08:35.791Z,2.20
2022-08-05T17:13:43.701Z,2.38
2022-08-05T17:18:38.323Z,2.60
2022-08-05T17:24:04.424Z,2.47
2022-08-05T17:28:47.282Z,2.33
2022-08-05T17:33:50.769Z,2.50
2022-08-05T17:38:44.466Z,2.30
2022-08-05T17:43:46.747Z,2.50
2022-08-05T17:48:47.830Z,2.60
2022-08-05T17:53:43.148Z,3.00
2022-08-05T17:58:44.804Z,2.92
2022-08-05T18:03:58.325Z,4.18
2022-08-05T18:08:52.907Z,3.08
2022-08-05T18:13:46.741Z,3.85
2022-08-05T18:18:41.591Z,3.72
2022-08-05T18:23:45.763Z,3.40
2022-08-05T18:28:42.262Z,3.17
2022-08-05T18:33:46.701Z,2.85
2022-08-05T18:38:43.765Z,2.80
2022-08-05T18:43:37.986Z,2.90
2022-08-05T18:48:33.326Z,2.80
2022-08-05T18:53:26.785Z,3.08
2022-08-05T18:58:28.639Z,2.80
2022-08-05T19:03:55.310Z,3.05
2022-08-05T19:08:37.043Z,3.15
2022-08-05T19:13:35.844Z,3.00
2022-08-05T19:18:31.139Z,3.08
2022-08-05T19:24:06.210Z,3.92
2022-08-05T19:28:59.449Z,3.15
2022-08-05T19:33:56.685Z,2.50
2022-08-05T19:38:51.260Z,2.17
2022-08-05T19:44:05.423Z,2.35
2022-08-05T19:49:04.061Z,2.40
2022-08-05T19:54:04.675Z,3.10
2022-08-05T19:59:51.228Z,2.90
2022-08-05T20:04:13.974Z,2.50
2022-08-05T20:09:14.309Z,2.42
2022-08-05T20:14:12.522Z,2.50
2022-08-05T20:19:09.111Z,2.70
2022-08-05T20:24:03.675Z,2.50
2022-08-05T20:29:00.499Z,2.45
2022-08-05T20:33:54.803Z,2.53
2022-08-05T20:38:54.663Z,3.10
2022-08-05T20:43:59.049Z,2.95
2022-08-05T20:48:55.291Z,2.63
2022-08-05T20:53:56.847Z,3.00
2022-08-05T20:58:51.898Z,3.28
2022-08-05T21:03:48.048Z,2.80
2022-08-05T21:08:44.069Z,3.10
2022-08-05T21:13:48.452Z,3.17
2022-08-05T21:18:51.440Z,3.38
2022-08-05T21:23:46.659Z,3.75
2022-08-05T21:28:50.585Z,3.33
2022-08-05T21:33:47.738Z,3.40
2022-08-05T21:38:41.207Z,3.63
2022-08-05T21:43:41.881Z,3.50
2022-08-05T21:48:44.084Z,3.75
2022-08-05T21:53:38.114Z,3.05
2022-08-05T21:58:32.552Z,3.33
2022-08-05T22:03:48.596Z,3.13
2022-08-05T22:08:42.359Z,3.38
2022-08-05T22:14:18.276Z,3.47
2022-08-05T22:18:49.782Z,3.67
2022-08-05T22:24:13.359Z,3.22
2022-08-05T22:29:18.708Z,2.95
2022-08-05T22:34:28.334Z,3.47
2022-08-05T22:39:23.845Z,3.60
2022-08-05T22:44:18.945Z,3.03
2022-08-05T22:50:17.623Z,3.58
2022-08-05T22:54:28.547Z,3.55
2022-08-05T22:59:46.086Z,3.28
2022-08-05T23:04:36.182Z,3.70
2022-08-05T23:09:57.198Z,4.18
2022-08-05T23:14:47.605Z,3.95
2022-08-05T23:19:46.658Z,3.58
2022-08-05T23:24:48.454Z,3.65
2022-08-05T23:29:45.616Z,3.22
2022-08-05T23:34:40.438Z,3.38
2022-08-05T23:39:53.377Z,3.20
2022-08-05T23:44:47.774Z,2.90
2022-08-05T23:49:48.671Z,3.05
2022-08-05T23:54:48.184Z,3.00
